sensor_id;sensor_type;location;lat;lon;timestamp;pressure;altitude;pressure_sealevel;temperature;humidity
21111;BME280;10713;51.912;4.494;2023-04-08T00:00:43;102329.34;;;8.84;100.00
21111;BME280;10713;51.912;4.494;2023-04-08T00:03:09;102329.34;;;8.87;100.00
21111;BME280;10713;51.912;4.494;2023-04-08T00:05:34;102331.06;;;8.88;100.00
21111;BME280;10713;51.912;4.494;2023-04-08T00:08:00;102327.56;;;8.86;100.00
21111;BME280;10713;51.912;4.494;2023-04-08T00:10:25;102333.75;;;8.85;100.00
21111;BME280;10713;51.912;4.494;2023-04-08T00:12:51;102334.59;;;8.84;100.00
21111;BME280;10713;51.912;4.494;2023-04-08T00:15:16;102337.25;;;8.83;100.00
21111;BME280;10713;51.912;4.494;2023-04-08T00:17:41;102334.59;;;8.84;100.00
21111;BME280;10713;51.912;4.494;2023-04-08T00:20:07;102334.59;;;8.86;100.00
21111;BME280;10713;51.912;4.494;2023-04-08T00:22:32;102327.63;;;8.82;100.00
21111;BME280;10713;51.912;4.494;2023-04-08T00:24:58;102340.78;;;8.85;100.00
21111;BME280;10713;51.912;4.494;2023-04-08T00:27:23;102327.56;;;8.86;100.00
21111;BME280;10713;51.912;4.494;2023-04-08T00:29:52;102329.34;;;8.87;100.00
21111;BME280;10713;51.912;4.494;2023-04-08T00:32:17;102328.44;;;8.88;100.00
21111;BME280;10713;51.912;4.494;2023-04-08T00:34:42;102333.69;;;8.90;100.00
21111;BME280;10713;51.912;4.494;2023-04-08T00:37:08;102333.72;;;8.88;100.00
21111;BME280;10713;51.912;4.494;2023-04-08T00:39:33;102331.06;;;8.87;100.00
21111;BME280;10713;51.912;4.494;2023-04-08T00:41:59;102333.72;;;8.88;100.00
21111;BME280;10713;51.912;4.494;2023-04-08T00:44:26;102336.31;;;8.91;100.00
21111;BME280;10713;51.912;4.494;2023-04-08T00:46:51;102337.22;;;8.90;100.00
21111;BME280;10713;51.912;4.494;2023-04-08T00:49:16;102340.75;;;8.88;100.00
21111;BME280;10713;51.912;4.494;2023-04-08T00:51:42;102337.25;;;8.86;100.00
21111;BME280;10713;51.912;4.494;2023-04-08T00:54:07;102344.25;;;8.87;100.00
21111;BME280;10713;51.912;4.494;2023-04-08T00:56:33;102346.00;;;8.88;100.00
21111;BME280;10713;51.912;4.494;2023-04-08T00:59:00;102338.97;;;8.88;100.00
21111;BME280;10713;51.912;4.494;2023-04-08T01:01:33;102341.59;;;8.90;100.00
21111;BME280;10713;51.912;4.494;2023-04-08T01:07:02;102345.09;;;8.92;100.00
21111;BME280;10713;51.912;4.494;2023-04-08T01:09:34;102345.09;;;8.92;100.00
21111;BME280;10713;51.912;4.494;2023-04-08T01:12:05;102343.38;;;8.88;100.00
21111;BME280;10713;51.912;4.494;2023-04-08T01:14:34;102346.03;;;8.85;100.00
21111;BME280;10713;51.912;4.494;2023-04-08T01:17:02;102341.66;;;8.80;100.00
21111;BME280;10713;51.912;4.494;2023-04-08T01:19:32;102346.94;;;8.82;100.00
21111;BME280;10713;51.912;4.494;2023-04-08T01:22:04;102346.94;;;8.82;100.00
21111;BME280;10713;51.912;4.494;2023-04-08T01:24:38;102340.81;;;8.78;100.00
21111;BME280;10713;51.912;4.494;2023-04-08T01:27:05;102341.72;;;8.76;100.00
21111;BME280;10713;51.912;4.494;2023-04-08T01:29:33;102346.09;;;8.78;100.00
21111;BME280;10713;51.912;4.494;2023-04-08T01:31:59;102350.44;;;8.78;100.00
21111;BME280;10713;51.912;4.494;2023-04-08T01:34:26;102349.56;;;8.80;100.00
21111;BME280;10713;51.912;4.494;2023-04-08T01:36:54;102346.06;;;8.80;100.00
21111;BME280;10713;51.912;4.494;2023-04-08T01:39:20;102353.06;;;8.81;100.00
21111;BME280;10713;51.912;4.494;2023-04-08T01:41:46;102354.84;;;8.79;100.00
21111;BME280;10713;51.912;4.494;2023-04-08T01:44:13;102346.06;;;8.80;100.00
21111;BME280;10713;51.912;4.494;2023-04-08T01:46:40;102357.47;;;8.77;100.00
21111;BME280;10713;51.912;4.494;2023-04-08T01:49:07;102346.09;;;8.75;100.00
21111;BME280;10713;51.912;4.494;2023-04-08T01:51:33;102349.66;;;8.73;100.00
21111;BME280;10713;51.912;4.494;2023-04-08T01:54:00;102345.25;;;8.72;100.00
21111;BME280;10713;51.912;4.494;2023-04-08T01:56:28;102353.13;;;8.72;100.00
21111;BME280;10713;51.912;4.494;2023-04-08T01:58:57;102352.28;;;8.73;100.00
21111;BME280;10713;51.912;4.494;2023-04-08T02:01:26;102354.00;;;8.74;100.00
21111;BME280;10713;51.912;4.494;2023-04-08T02:03:54;102354.91;;;8.73;100.00
21111;BME280;10713;51.912;4.494;2023-04-08T02:06:22;102354.03;;;8.71;100.00
21111;BME280;10713;51.912;4.494;2023-04-08T02:08:48;102349.63;;;8.71;100.00
21111;BME280;10713;51.912;4.494;2023-04-08T02:11:14;102361.94;;;8.71;100.00
21111;BME280;10713;51.912;4.494;2023-04-08T02:13:39;102353.13;;;8.72;100.00
21111;BME280;10713;51.912;4.494;2023-04-08T02:16:14;102347.88;;;8.72;100.00
21111;BME280;10713;51.912;4.494;2023-04-08T02:18:42;102354.00;;;8.72;100.00
21111;BME280;10713;51.912;4.494;2023-04-08T02:21:14;102353.13;;;8.72;100.00
21111;BME280;10713;51.912;4.494;2023-04-08T02:23:40;102357.53;;;8.70;100.00
21111;BME280;10713;51.912;4.494;2023-04-08T02:26:12;102354.94;;;8.65;100.00
21111;BME280;10713;51.912;4.494;2023-04-08T02:28:39;102355.84;;;8.63;100.00
21111;BME280;10713;51.912;4.494;2023-04-08T02:31:09;102353.22;;;8.60;100.00
21111;BME280;10713;51.912;4.494;2023-04-08T02:33:38;102356.75;;;8.55;100.00
21111;BME280;10713;51.912;4.494;2023-04-08T02:36:04;102362.03;;;8.52;100.00
21111;BME280;10713;51.912;4.494;2023-04-08T02:38:30;102358.56;;;8.50;100.00
21111;BME280;10713;51.912;4.494;2023-04-08T02:40:56;102366.47;;;8.49;100.00
21111;BME280;10713;51.912;4.494;2023-04-08T02:43:22;102362.06;;;8.49;100.00
21111;BME280;10713;51.912;4.494;2023-04-08T02:45:55;102360.31;;;8.48;100.00
21111;BME280;10713;51.912;4.494;2023-04-08T02:48:21;102369.09;;;8.49;100.00
21111;BME280;10713;51.912;4.494;2023-04-08T02:50:47;102364.69;;;8.49;100.00
21111;BME280;10713;51.912;4.494;2023-04-08T02:53:12;102367.34;;;8.48;100.00
21111;BME280;10713;51.912;4.494;2023-04-08T02:55:37;102365.59;;;8.48;100.00
21111;BME280;10713;51.912;4.494;2023-04-08T02:58:03;102362.97;;;8.48;100.00
21111;BME280;10713;51.912;4.494;2023-04-08T03:00:29;102371.75;;;8.47;100.00
21111;BME280;10713;51.912;4.494;2023-04-08T03:02:54;102372.63;;;8.48;100.00
21111;BME280;10713;51.912;4.494;2023-04-08T03:05:20;102369.97;;;8.46;100.00
21111;BME280;10713;51.912;4.494;2023-04-08T03:07:45;102376.13;;;8.44;100.00
21111;BME280;10713;51.912;4.494;2023-04-08T03:10:11;102376.13;;;8.45;100.00
21111;BME280;10713;51.912;4.494;2023-04-08T03:12:36;102378.75;;;8.47;100.00
21111;BME280;10713;51.912;4.494;2023-04-08T03:15:02;102386.66;;;8.48;100.00
21111;BME280;10713;51.912;4.494;2023-04-08T03:17:28;102379.63;;;8.50;100.00
21111;BME280;10713;51.912;4.494;2023-04-08T03:19:54;102384.00;;;8.51;100.00
21111;BME280;10713;51.912;4.494;2023-04-08T03:22:19;102391.88;;;8.51;100.00
21111;BME280;10713;51.912;4.494;2023-04-08T03:24:45;102381.34;;;8.54;100.00
21111;BME280;10713;51.912;4.494;2023-04-08T03:27:10;102390.13;;;8.53;100.00
21111;BME280;10713;51.912;4.494;2023-04-08T03:29:36;102392.75;;;8.53;100.00
21111;BME280;10713;51.912;4.494;2023-04-08T03:32:02;102391.00;;;8.54;100.00
21111;BME280;10713;51.912;4.494;2023-04-08T03:34:27;102396.22;;;8.55;100.00
21111;BME280;10713;51.912;4.494;2023-04-08T03:36:53;102390.97;;;8.57;100.00
21111;BME280;10713;51.912;4.494;2023-04-08T03:39:18;102394.47;;;8.59;100.00
21111;BME280;10713;51.912;4.494;2023-04-08T03:41:44;102401.50;;;8.62;100.00
21111;BME280;10713;51.912;4.494;2023-04-08T03:44:09;102397.97;;;8.61;100.00
21111;BME280;10713;51.912;4.494;2023-04-08T03:46:34;102408.50;;;8.63;100.00
21111;BME280;10713;51.912;4.494;2023-04-08T03:49:00;102400.59;;;8.64;100.00
21111;BME280;10713;51.912;4.494;2023-04-08T03:51:25;102404.09;;;8.63;100.00
21111;BME280;10713;51.912;4.494;2023-04-08T03:53:52;102415.53;;;8.62;100.00
21111;BME280;10713;51.912;4.494;2023-04-08T03:56:17;102403.22;;;8.63;100.00
21111;BME280;10713;51.912;4.494;2023-04-08T03:58:43;102398.84;;;8.60;100.00
21111;BME280;10713;51.912;4.494;2023-04-08T04:01:08;102412.91;;;8.57;100.00
21111;BME280;10713;51.912;4.494;2023-04-08T04:03:34;102411.22;;;8.50;100.00
21111;BME280;10713;51.912;4.494;2023-04-08T04:05:59;102415.66;;;8.39;100.00
21111;BME280;10713;51.912;4.494;2023-04-08T04:08:24;102410.41;;;8.28;100.00
21111;BME280;10713;51.912;4.494;2023-04-08T04:10:50;102416.53;;;8.26;100.00
21111;BME280;10713;51.912;4.494;2023-04-08T04:13:15;102418.31;;;8.22;100.00
21111;BME280;10713;51.912;4.494;2023-04-08T04:15:41;102420.09;;;8.22;100.00
21111;BME280;10713;51.912;4.494;2023-04-08T04:18:07;102418.34;;;8.19;100.00
21111;BME280;10713;51.912;4.494;2023-04-08T04:20:32;102414.84;;;8.19;100.00
21111;BME280;10713;51.912;4.494;2023-04-08T04:22:57;102416.56;;;8.18;100.00
21111;BME280;10713;51.912;4.494;2023-04-08T04:25:23;102421.84;;;8.17;100.00
21111;BME280;10713;51.912;4.494;2023-04-08T04:27:49;102423.63;;;8.13;100.00
21111;BME280;10713;51.912;4.494;2023-04-08T04:30:15;102422.75;;;8.09;100.00
21111;BME280;10713;51.912;4.494;2023-04-08T04:32:41;102423.66;;;8.05;100.00
21111;BME280;10713;51.912;4.494;2023-04-08T04:35:08;102432.44;;;8.00;100.00
21111;BME280;10713;51.912;4.494;2023-04-08T04:37:33;102425.31;;;8.23;100.00
21111;BME280;10713;51.912;4.494;2023-04-08T04:39:59;102431.59;;;7.93;100.00
21111;BME280;10713;51.912;4.494;2023-04-08T04:42:24;102429.81;;;7.89;100.00
21111;BME280;10713;51.912;4.494;2023-04-08T04:44:50;102435.09;;;7.86;100.00
21111;BME280;10713;51.912;4.494;2023-04-08T04:47:15;102441.25;;;7.80;100.00
21111;BME280;10713;51.912;4.494;2023-04-08T04:49:41;102436.88;;;7.78;100.00
21111;BME280;10713;51.912;4.494;2023-04-08T04:52:06;102442.13;;;7.76;100.00
21111;BME280;10713;51.912;4.494;2023-04-08T04:54:31;102446.50;;;7.77;100.00
21111;BME280;10713;51.912;4.494;2023-04-08T04:56:57;102446.50;;;7.83;100.00
21111;BME280;10713;51.912;4.494;2023-04-08T04:59:22;102449.13;;;7.86;100.00
21111;BME280;10713;51.912;4.494;2023-04-08T05:01:47;102447.38;;;7.93;100.00
21111;BME280;10713;51.912;4.494;2023-04-08T05:04:13;102449.97;;;7.98;100.00
21111;BME280;10713;51.912;4.494;2023-04-08T05:06:38;102451.72;;;7.97;100.00
21111;BME280;10713;51.912;4.494;2023-04-08T05:09:04;102455.25;;;7.96;100.00
21111;BME280;10713;51.912;4.494;2023-04-08T05:11:29;102458.75;;;7.97;100.00
21111;BME280;10713;51.912;4.494;2023-04-08T05:13:54;102456.97;;;7.97;100.00
21111;BME280;10713;51.912;4.494;2023-04-08T05:16:20;102455.25;;;7.96;100.00
21111;BME280;10713;51.912;4.494;2023-04-08T05:18:45;102459.63;;;7.96;100.00
21111;BME280;10713;51.912;4.494;2023-04-08T05:21:11;102465.75;;;7.96;100.00
21111;BME280;10713;51.912;4.494;2023-04-08T05:23:36;102456.97;;;7.97;100.00
21111;BME280;10713;51.912;4.494;2023-04-08T05:26:02;102466.59;;;7.98;100.00
21111;BME280;10713;51.912;4.494;2023-04-08T05:28:27;102470.13;;;8.02;100.00
21111;BME280;10713;51.912;4.494;2023-04-08T05:30:52;102468.38;;;8.07;100.00
21111;BME280;10713;51.912;4.494;2023-04-08T05:33:18;102470.97;;;8.13;100.00
21111;BME280;10713;51.912;4.494;2023-04-08T05:35:44;102467.47;;;8.16;100.00
21111;BME280;10713;51.912;4.494;2023-04-08T05:38:10;102474.44;;;8.18;100.00
21111;BME280;10713;51.912;4.494;2023-04-08T05:40:35;102474.47;;;8.17;100.00
21111;BME280;10713;51.912;4.494;2023-04-08T05:43:01;102477.97;;;8.19;100.00
21111;BME280;10713;51.912;4.494;2023-04-08T05:45:27;102482.34;;;8.18;100.00
21111;BME280;10713;51.912;4.494;2023-04-08T05:47:52;102483.25;;;8.19;100.00
21111;BME280;10713;51.912;4.494;2023-04-08T05:50:18;102485.88;;;8.16;100.00
21111;BME280;10713;51.912;4.494;2023-04-08T05:52:44;102492.03;;;8.07;100.00
21111;BME280;10713;51.912;4.494;2023-04-08T05:55:10;102494.69;;;7.99;100.00
21111;BME280;10713;51.912;4.494;2023-04-08T05:57:36;102498.16;;;7.98;100.00
21111;BME280;10713;51.912;4.494;2023-04-08T06:00:05;102502.56;;;8.02;100.00
21111;BME280;10713;51.912;4.494;2023-04-08T06:02:30;102514.81;;;8.03;100.00
21111;BME280;10713;51.912;4.494;2023-04-08T06:04:55;102507.78;;;8.04;100.00
21111;BME280;10713;51.912;4.494;2023-04-08T06:07:21;102513.06;;;8.02;100.00
21111;BME280;10713;51.912;4.494;2023-04-08T06:09:46;102509.56;;;8.05;100.00
21111;BME280;10713;51.912;4.494;2023-04-08T06:12:11;102504.28;;;8.06;100.00
21111;BME280;10713;51.912;4.494;2023-04-08T06:14:37;102519.19;;;8.09;100.00
21111;BME280;10713;51.912;4.494;2023-04-08T06:17:03;102513.94;;;8.09;100.00
21111;BME280;10713;51.912;4.494;2023-04-08T06:19:28;102520.06;;;8.09;100.00
21111;BME280;10713;51.912;4.494;2023-04-08T06:21:53;102522.72;;;7.97;100.00
21111;BME280;10713;51.912;4.494;2023-04-08T06:24:26;102523.59;;;7.95;100.00
21111;BME280;10713;51.912;4.494;2023-04-08T06:26:52;102529.75;;;7.97;100.00
21111;BME280;10713;51.912;4.494;2023-04-08T06:29:18;102539.38;;;8.01;100.00
21111;BME280;10713;51.912;4.494;2023-04-08T06:31:43;102537.63;;;7.92;100.00
21111;BME280;10713;51.912;4.494;2023-04-08T06:34:08;102535.03;;;7.81;100.00
21111;BME280;10713;51.912;4.494;2023-04-08T06:36:34;102549.91;;;7.78;100.00
21111;BME280;10713;51.912;4.494;2023-04-08T06:38:59;102557.81;;;7.76;100.00
21111;BME280;10713;51.912;4.494;2023-04-08T06:41:25;102553.44;;;7.71;100.00
21111;BME280;10713;51.912;4.494;2023-04-08T06:43:50;102563.06;;;7.75;100.00
21111;BME280;10713;51.912;4.494;2023-04-08T06:46:15;102560.41;;;7.84;100.00
21111;BME280;10713;51.912;4.494;2023-04-08T06:48:41;102556.03;;;7.92;100.00
21111;BME280;10713;51.912;4.494;2023-04-08T06:51:06;102569.19;;;7.97;100.00
21111;BME280;10713;51.912;4.494;2023-04-08T06:53:32;102570.94;;;7.95;100.00
21111;BME280;10713;51.912;4.494;2023-04-08T06:55:58;102569.19;;;8.00;100.00
21111;BME280;10713;51.912;4.494;2023-04-08T06:58:23;102569.19;;;8.04;100.00
21111;BME280;10713;51.912;4.494;2023-04-08T07:00:49;102567.41;;;8.09;100.00
21111;BME280;10713;51.912;4.494;2023-04-08T07:03:14;102573.56;;;8.07;100.00
21111;BME280;10713;51.912;4.494;2023-04-08T07:05:40;102573.53;;;8.15;100.00
21111;BME280;10713;51.912;4.494;2023-04-08T07:08:06;102578.78;;;8.28;100.00
21111;BME280;10713;51.912;4.494;2023-04-08T07:10:34;102587.53;;;8.35;100.00
21111;BME280;10713;51.912;4.494;2023-04-08T07:12:59;102589.28;;;8.34;100.00
21111;BME280;10713;51.912;4.494;2023-04-08T07:15:25;102586.66;;;8.38;100.00
21111;BME280;10713;51.912;4.494;2023-04-08T07:17:50;102584.03;;;8.34;100.00
21111;BME280;10713;51.912;4.494;2023-04-08T07:20:16;102584.03;;;8.31;100.00
21111;BME280;10713;51.912;4.494;2023-04-08T07:22:42;102584.03;;;8.34;100.00
21111;BME280;10713;51.912;4.494;2023-04-08T07:25:08;102592.84;;;8.44;100.00
21111;BME280;10713;51.912;4.494;2023-04-08T07:27:33;102597.19;;;8.47;100.00
21111;BME280;10713;51.912;4.494;2023-04-08T07:29:59;102598.06;;;8.49;100.00
21111;BME280;10713;51.912;4.494;2023-04-08T07:32:25;102598.94;;;8.49;100.00
21111;BME280;10713;51.912;4.494;2023-04-08T07:34:51;102600.72;;;8.50;100.00
21111;BME280;10713;51.912;4.494;2023-04-08T07:37:17;102606.81;;;8.57;100.00
21111;BME280;10713;51.912;4.494;2023-04-08T07:39:42;102609.47;;;8.59;100.00
21111;BME280;10713;51.912;4.494;2023-04-08T07:42:07;102611.22;;;8.60;100.00
21111;BME280;10713;51.912;4.494;2023-04-08T07:44:33;102614.72;;;8.65;100.00
21111;BME280;10713;51.912;4.494;2023-04-08T07:46:58;102615.53;;;8.74;100.00
21111;BME280;10713;51.912;4.494;2023-04-08T07:49:23;102614.66;;;8.80;100.00
21111;BME280;10713;51.912;4.494;2023-04-08T07:51:49;102611.97;;;8.86;100.00
21111;BME280;10713;51.912;4.494;2023-04-08T07:54:15;102611.97;;;8.92;100.00
21111;BME280;10713;51.912;4.494;2023-04-08T07:56:44;102618.84;;;9.22;100.00
21111;BME280;10713;51.912;4.494;2023-04-08T07:59:10;102610.16;;;9.08;100.00
21111;BME280;10713;51.912;4.494;2023-04-08T08:01:36;102616.28;;;9.13;100.00
21111;BME280;10713;51.912;4.494;2023-04-08T08:04:01;102621.47;;;9.21;100.00
21111;BME280;10713;51.912;4.494;2023-04-08T08:06:27;102622.34;;;9.28;100.00
21111;BME280;10713;51.912;4.494;2023-04-08T08:08:53;102620.53;;;9.34;100.00
21111;BME280;10713;51.912;4.494;2023-04-08T08:11:18;102625.72;;;9.50;100.00
21111;BME280;10713;51.912;4.494;2023-04-08T08:13:44;102620.44;;;9.56;100.00
21111;BME280;10713;51.912;4.494;2023-04-08T08:16:09;102626.50;;;9.64;100.00
21111;BME280;10713;51.912;4.494;2023-04-08T08:18:36;102621.16;;;9.76;100.00
21111;BME280;10713;51.912;4.494;2023-04-08T08:21:02;102631.63;;;9.84;100.00
21111;BME280;10713;51.912;4.494;2023-04-08T08:23:28;102632.44;;;9.93;100.00
21111;BME280;10713;51.912;4.494;2023-04-08T08:26:04;102627.97;;;10.00;100.00
21111;BME280;10713;51.912;4.494;2023-04-08T08:28:30;102637.72;;;9.92;100.00
21111;BME280;10713;51.912;4.494;2023-04-08T08:30:56;102633.28;;;9.96;100.00
21111;BME280;10713;51.912;4.494;2023-04-08T08:33:21;102637.88;;;9.72;100.00
21111;BME280;10713;51.912;4.494;2023-04-08T08:35:47;102643.16;;;9.69;100.00
21111;BME280;10713;51.912;4.494;2023-04-08T08:38:12;102638.72;;;9.79;100.00
21111;BME280;10713;51.912;4.494;2023-04-08T08:40:38;102643.91;;;9.88;100.00
21111;BME280;10713;51.912;4.494;2023-04-08T08:43:04;102642.94;;;9.98;100.00
21111;BME280;10713;51.912;4.494;2023-04-08T08:45:29;102641.00;;;10.20;100.00
21111;BME280;10713;51.912;4.494;2023-04-08T08:47:55;102650.50;;;10.41;100.00
21111;BME280;10713;51.912;4.494;2023-04-08T08:50:21;102641.47;;;10.64;100.00
21111;BME280;10713;51.912;4.494;2023-04-08T08:52:48;102645.63;;;10.86;100.00
21111;BME280;10713;51.912;4.494;2023-04-08T08:55:15;102642.84;;;10.98;100.00
21111;BME280;10713;51.912;4.494;2023-04-08T08:57:41;102638.06;;;11.26;100.00
21111;BME280;10713;51.912;4.494;2023-04-08T09:00:07;102631.34;;;11.66;100.00
21111;BME280;10713;51.912;4.494;2023-04-08T09:02:33;102637.47;;;12.24;100.00
21111;BME280;10713;51.912;4.494;2023-04-08T09:04:59;102626.94;;;12.69;100.00
21111;BME280;10713;51.912;4.494;2023-04-08T09:07:26;102630.84;;;12.94;100.00
21111;BME280;10713;51.912;4.494;2023-04-08T09:09:52;102625.34;;;13.45;100.00
21111;BME280;10713;51.912;4.494;2023-04-08T09:12:18;102616.53;;;13.82;100.00
21111;BME280;10713;51.912;4.494;2023-04-08T09:14:43;102613.78;;;14.19;100.00
21111;BME280;10713;51.912;4.494;2023-04-08T09:17:09;102618.84;;;14.63;100.00
21111;BME280;10713;51.912;4.494;2023-04-08T09:19:35;102607.25;;;15.25;100.00
21111;BME280;10713;51.912;4.494;2023-04-08T09:22:08;102603.78;;;15.79;100.00
21111;BME280;10713;51.912;4.494;2023-04-08T09:24:35;102600.59;;;16.21;100.00
21111;BME280;10713;51.912;4.494;2023-04-08T09:27:02;102593.69;;;16.65;100.00
21111;BME280;10713;51.912;4.494;2023-04-08T09:29:27;102582.81;;;16.95;100.00
21111;BME280;10713;51.912;4.494;2023-04-08T09:31:54;102591.34;;;17.27;100.00
21111;BME280;10713;51.912;4.494;2023-04-08T09:34:20;102577.75;;;17.33;100.00
21111;BME280;10713;51.912;4.494;2023-04-08T09:36:49;102579.06;;;17.45;100.00
21111;BME280;10713;51.912;4.494;2023-04-08T09:39:15;102572.59;;;17.50;100.00
21111;BME280;10713;51.912;4.494;2023-04-08T09:41:42;102572.97;;;17.41;100.00
21111;BME280;10713;51.912;4.494;2023-04-08T09:44:09;102563.50;;;17.34;100.00
21111;BME280;10713;51.912;4.494;2023-04-08T09:52:20;102555.03;;;17.01;100.00
21111;BME280;10713;51.912;4.494;2023-04-08T09:57:36;102550.91;;;18.41;100.00
21111;BME280;10713;51.912;4.494;2023-04-08T10:00:08;102554.06;;;19.08;100.00
21111;BME280;10713;51.912;4.494;2023-04-08T10:02:42;102557.09;;;19.19;100.00
21111;BME280;10713;51.912;4.494;2023-04-08T10:05:12;102549.47;;;18.93;100.00
21111;BME280;10713;51.912;4.494;2023-04-08T10:07:38;102542.09;;;18.79;100.00
21111;BME280;10713;51.912;4.494;2023-04-08T10:10:04;102546.91;;;19.08;100.00
21111;BME280;10713;51.912;4.494;2023-04-08T10:12:31;102544.72;;;19.17;100.00
21111;BME280;10713;51.912;4.494;2023-04-08T10:15:25;102544.97;;;19.12;100.00
21111;BME280;10713;51.912;4.494;2023-04-08T10:17:55;102543.91;;;18.97;100.00
21111;BME280;10713;51.912;4.494;2023-04-08T10:20:45;102542.91;;;19.17;100.00
21111;BME280;10713;51.912;4.494;2023-04-08T10:23:15;102546.63;;;18.96;100.00
21111;BME280;10713;51.912;4.494;2023-04-08T10:25:44;102537.94;;;18.72;100.00
21111;BME280;10713;51.912;4.494;2023-04-08T10:33:19;102549.34;;;19.32;100.00
21111;BME280;10713;51.912;4.494;2023-04-08T10:35:51;102543.19;;;19.30;100.00
21111;BME280;10713;51.912;4.494;2023-04-08T10:38:18;102537.03;;;19.47;100.00
21111;BME280;10713;51.912;4.494;2023-04-08T10:40:44;102526.41;;;19.80;100.00
21111;BME280;10713;51.912;4.494;2023-04-08T10:43:11;102535.47;;;20.12;100.00
21111;BME280;10713;51.912;4.494;2023-04-08T10:45:37;102531.72;;;19.82;100.00
21111;BME280;10713;51.912;4.494;2023-04-08T10:48:17;102532.22;;;19.17;100.00
21111;BME280;10713;51.912;4.494;2023-04-08T10:50:50;102534.78;;;18.82;100.00
21111;BME280;10713;51.912;4.494;2023-04-08T10:53:17;102538.72;;;18.55;100.00
21111;BME280;10713;51.912;4.494;2023-04-08T10:55:42;102535.44;;;18.48;100.00
21111;BME280;10713;51.912;4.494;2023-04-08T10:58:09;102536.31;;;18.09;100.00
21111;BME280;10713;51.912;4.494;2023-04-08T11:00:37;102532.78;;;18.09;100.00
21111;BME280;10713;51.912;4.494;2023-04-08T11:03:04;102532.63;;;18.32;100.00
21111;BME280;10713;51.912;4.494;2023-04-08T11:05:31;102534.94;;;18.40;100.00
21111;BME280;10713;51.912;4.494;2023-04-08T11:07:59;102535.84;;;18.20;100.00
21111;BME280;10713;51.912;4.494;2023-04-08T11:10:26;102540.84;;;17.87;100.00
21111;BME280;10713;51.912;4.494;2023-04-08T11:12:55;102537.97;;;17.49;100.00
21111;BME280;10713;51.912;4.494;2023-04-08T11:15:23;102535.47;;;17.22;100.00
21111;BME280;10713;51.912;4.494;2023-04-08T11:17:49;102547.00;;;17.45;100.00
21111;BME280;10713;51.912;4.494;2023-04-08T11:20:14;102536.16;;;17.49;100.00
21111;BME280;10713;51.912;4.494;2023-04-08T11:22:40;102531.56;;;17.53;100.00
21111;BME280;10713;51.912;4.494;2023-04-08T11:25:09;102529.31;;;17.64;100.00
21111;BME280;10713;51.912;4.494;2023-04-08T11:27:35;102534.91;;;17.58;100.00
21111;BME280;10713;51.912;4.494;2023-04-08T11:30:02;102522.44;;;17.37;100.00
21111;BME280;10713;51.912;4.494;2023-04-08T11:32:29;102526.13;;;17.12;100.00
21111;BME280;10713;51.912;4.494;2023-04-08T11:34:54;102535.59;;;16.97;100.00
21111;BME280;10713;51.912;4.494;2023-04-08T11:37:20;102523.66;;;16.84;100.00
21111;BME280;10713;51.912;4.494;2023-04-08T11:39:46;102528.66;;;16.68;100.00
21111;BME280;10713;51.912;4.494;2023-04-08T11:42:28;102524.78;;;16.30;100.00
21111;BME280;10713;51.912;4.494;2023-04-08T11:44:54;102525.66;;;16.05;100.00
21111;BME280;10713;51.912;4.494;2023-04-08T11:47:19;102522.59;;;15.91;98.94
21111;BME280;10713;51.912;4.494;2023-04-08T11:49:46;102520.78;;;15.93;88.66
21111;BME280;10713;51.912;4.494;2023-04-08T11:52:12;102524.25;;;15.95;84.27
21111;BME280;10713;51.912;4.494;2023-04-08T11:54:41;102528.34;;;15.80;79.60
21111;BME280;10713;51.912;4.494;2023-04-08T11:57:08;102531.78;;;15.55;81.69
21111;BME280;10713;51.912;4.494;2023-04-08T11:59:36;102532.50;;;15.34;83.23
21111;BME280;10713;51.912;4.494;2023-04-08T12:02:02;102536.44;;;15.22;81.12
21111;BME280;10713;51.912;4.494;2023-04-08T12:04:28;102539.25;;;15.16;80.47
21111;BME280;10713;51.912;4.494;2023-04-08T12:06:54;102530.06;;;15.26;81.38
21111;BME280;10713;51.912;4.494;2023-04-08T12:09:20;102540.66;;;15.28;71.44
21111;BME280;10713;51.912;4.494;2023-04-08T12:11:45;102533.13;;;15.14;61.50
21111;BME280;10713;51.912;4.494;2023-04-08T12:14:10;102538.81;;;15.02;59.76
21111;BME280;10713;51.912;4.494;2023-04-08T12:16:36;102524.53;;;15.06;60.88
21111;BME280;10713;51.912;4.494;2023-04-08T12:19:01;102530.13;;;14.97;61.99
21111;BME280;10713;51.912;4.494;2023-04-08T12:21:27;102518.06;;;14.85;60.45
21111;BME280;10713;51.912;4.494;2023-04-08T12:23:52;102524.19;;;14.87;57.06
21111;BME280;10713;51.912;4.494;2023-04-08T12:26:18;102512.75;;;14.85;56.17
21111;BME280;10713;51.912;4.494;2023-04-08T12:28:44;102524.81;;;14.97;55.79
21111;BME280;10713;51.912;4.494;2023-04-08T12:31:10;102512.63;;;15.18;58.39
21111;BME280;10713;51.912;4.494;2023-04-08T12:33:36;102519.72;;;15.45;58.49
21111;BME280;10713;51.912;4.494;2023-04-08T12:36:01;102521.69;;;15.39;56.75
21111;BME280;10713;51.912;4.494;2023-04-08T12:38:27;102522.19;;;15.23;58.82
21111;BME280;10713;51.912;4.494;2023-04-08T12:40:53;102516.09;;;15.20;60.71
21111;BME280;10713;51.912;4.494;2023-04-08T12:43:18;102512.09;;;15.33;59.38
21111;BME280;10713;51.912;4.494;2023-04-08T12:45:44;102505.16;;;15.55;57.03
21111;BME280;10713;51.912;4.494;2023-04-08T12:48:09;102507.28;;;15.72;55.85
21111;BME280;10713;51.912;4.494;2023-04-08T12:50:34;102507.78;;;15.57;56.45
21111;BME280;10713;51.912;4.494;2023-04-08T12:53:00;102511.25;;;15.32;55.91
21111;BME280;10713;51.912;4.494;2023-04-08T12:55:25;102501.88;;;15.47;58.67
21111;BME280;10713;51.912;4.494;2023-04-08T12:57:51;102510.59;;;15.52;55.20
21111;BME280;10713;51.912;4.494;2023-04-08T13:00:17;102516.03;;;15.21;54.63